Time;durP1;ratioP1;P1;durP2;ratioP2;P2;SDS_P1;SDS_P2;PMS_P1;PMS_P2;Temp;Humidity;BMP_temperature;BMP_pressure;BME280_temperature;BME280_humidity;BME280_pressure;Samples;Min_cycle;Max_cycle;Signal;HPM_P1;HPM_P2
2022/01/16 00:02:09;;;;;;;35.63;17.37;;;;;;;;;;5089504;27;20213;-60
2022/01/16 00:04:34;;;;;;;39.40;17.53;;;;;;;;;;5073556;28;20232;-60
2022/01/16 00:07:04;;;;;;;39.40;17.90;;;;;;;;;;5084363;27;20217;-60
2022/01/16 00:09:35;;;;;;;46.03;17.77;;;;;;;;;;5066445;28;20220;-62
2022/01/16 00:12:05;;;;;;;48.23;18.13;;;;;;;;;;5049957;28;20217;-61
2022/01/16 00:14:34;;;;;;;37.93;18.13;;;;;;;;;;5057122;28;20212;-61
2022/01/16 00:17:01;;;;;;;62.17;18.57;;;;;;;;;;5075840;27;20295;-63
2022/01/16 00:19:28;;;;;;;44.27;18.63;;;;;;;;;;5088044;27;20241;-61
2022/01/16 00:21:57;;;;;;;44.90;18.30;;;;;;;;;;5075132;28;20752;-62
2022/01/16 00:24:24;;;;;;;36.77;18.57;;;;;;;;;;5093759;27;20209;-62
2022/01/16 00:26:52;;;;;;;45.80;17.93;;;;;;;;;;5047385;28;20197;-62
2022/01/16 00:29:19;;;;;;;42.20;18.67;;;;;;;;;;5057350;28;20354;-62
2022/01/16 00:31:47;;;;;;;42.30;17.27;;;;;;;;;;5046897;28;20608;-62
2022/01/16 00:34:14;;;;;;;37.37;18.40;;;;;;;;;;5046390;28;20217;-62
2022/01/16 00:36:41;;;;;;;38.50;18.27;;;;;;;;;;5049978;28;20212;-61
2022/01/16 00:39:09;;;;;;;41.53;19.07;;;;;;;;;;5065752;28;20245;-62
2022/01/16 00:41:36;;;;;;;43.60;19.40;;;;;;;;;;5051059;28;20682;-62
2022/01/16 00:44:04;;;;;;;56.70;19.90;;;;;;;;;;5069770;28;20618;-62
2022/01/16 00:46:32;;;;;;;50.87;18.13;;;;;;;;;;5047685;28;20236;-61
2022/01/16 00:48:59;;;;;;;42.30;19.60;;;;;;;;;;5068374;28;20721;-62
2022/01/16 00:51:27;;;;;;;41.20;18.80;;;;;;;;;;5074924;28;20211;-61
2022/01/16 00:53:54;;;;;;;61.40;23.87;;;;;;;;;;5056340;28;20346;-62
2022/01/16 00:56:22;;;;;;;44.63;20.53;;;;;;;;;;5046129;28;20273;-61
2022/01/16 00:58:49;;;;;;;40.77;19.67;;;;;;;;;;5076528;28;20311;-62
2022/01/16 01:01:17;;;;;;;55.67;23.33;;;;;;;;;;5092383;27;20206;-61
2022/01/16 01:03:44;;;;;;;48.53;23.03;;;;;;;;;;5085795;28;20948;-60
2022/01/16 01:06:14;;;;;;;47.70;21.97;;;;;;;;;;5062249;28;20208;-61
2022/01/16 01:08:42;;;;;;;55.10;22.37;;;;;;;;;;5047062;28;20729;-60
2022/01/16 01:11:14;;;;;;;59.03;24.20;;;;;;;;;;5049941;28;20197;-61
2022/01/16 01:13:57;;;;;;;48.70;24.07;;;;;;;;;;5064684;28;20216;-62
2022/01/16 01:16:28;;;;;;;56.17;24.23;;;;;;;;;;5066698;28;20662;-61
2022/01/16 01:18:55;;;;;;;50.87;22.60;;;;;;;;;;5095406;27;20847;-62
2022/01/16 01:21:29;;;;;;;60.90;23.57;;;;;;;;;;5049083;28;20197;-61
2022/01/16 01:23:57;;;;;;;59.70;23.27;;;;;;;;;;5060475;28;20232;-61
2022/01/16 01:26:30;;;;;;;83.13;24.73;;;;;;;;;;5063258;28;20206;-63
2022/01/16 01:28:57;;;;;;;58.63;23.13;;;;;;;;;;5049391;28;20542;-61
2022/01/16 01:31:26;;;;;;;77.33;23.27;;;;;;;;;;5057636;28;20216;-61
2022/01/16 01:33:54;;;;;;;66.27;25.00;;;;;;;;;;5063989;28;22411;-61
2022/01/16 01:36:21;;;;;;;51.30;23.70;;;;;;;;;;5081416;27;20250;-61
2022/01/16 01:38:48;;;;;;;60.40;23.07;;;;;;;;;;5048354;28;20232;-62
2022/01/16 01:41:16;;;;;;;74.97;22.47;;;;;;;;;;5078494;27;20266;-61
2022/01/16 01:51:44;;;;;;;78.53;26.83;;;;;;;;;;5064004;28;20675;-61
2022/01/16 01:54:13;;;;;;;63.90;24.93;;;;;;;;;;5058695;28;20205;-61
2022/01/16 01:56:41;;;;;;;87.23;26.33;;;;;;;;;;5070050;28;20224;-62
2022/01/16 01:59:09;;;;;;;73.23;26.23;;;;;;;;;;5053478;28;20240;-61
2022/01/16 02:01:36;;;;;;;59.07;23.60;;;;;;;;;;5059126;28;20205;-60
2022/01/16 02:04:04;;;;;;;72.33;24.87;;;;;;;;;;5045619;28;20274;-61
2022/01/16 02:06:32;;;;;;;56.50;24.40;;;;;;;;;;5064721;28;20213;-60
2022/01/16 02:09:01;;;;;;;66.90;25.63;;;;;;;;;;5090084;27;20328;-61
2022/01/16 02:11:31;;;;;;;75.27;25.33;;;;;;;;;;5089360;27;20214;-61
2022/01/16 02:14:13;;;;;;;68.73;28.37;;;;;;;;;;5081777;28;20216;-62
2022/01/16 02:28:09;;;;;;;66.07;25.20;;;;;;;;;;5068487;28;20229;-60
2022/01/16 02:34:29;;;;;;;56.67;23.77;;;;;;;;;;5082581;28;20214;-63
2022/01/16 02:36:16;;;;;;;60.03;25.13;;;;;;;;;;5072546;28;20208;-61
2022/01/16 02:38:45;;;;;;;71.47;25.20;;;;;;;;;;5069009;28;20223;-61
2022/01/16 02:41:13;;;;;;;64.23;25.57;;;;;;;;;;5061731;28;20216;-61
2022/01/16 02:43:46;;;;;;;72.23;24.77;;;;;;;;;;5057588;28;20673;-62
2022/01/16 02:48:43;;;;;;;57.67;24.67;;;;;;;;;;5069691;28;20223;-62
2022/01/16 02:51:11;;;;;;;53.60;23.90;;;;;;;;;;5052547;28;20296;-62
2022/01/16 02:53:39;;;;;;;57.63;24.00;;;;;;;;;;5044706;28;20215;-62
2022/01/16 02:56:08;;;;;;;74.63;23.83;;;;;;;;;;5054837;28;20725;-63
2022/01/16 02:58:35;;;;;;;66.73;23.33;;;;;;;;;;5053695;28;20224;-63
2022/01/16 03:01:03;;;;;;;62.10;24.43;;;;;;;;;;5052615;28;20220;-62
2022/01/16 03:03:30;;;;;;;78.57;23.33;;;;;;;;;;5045395;28;20309;-61
2022/01/16 03:05:58;;;;;;;58.83;23.93;;;;;;;;;;5060863;28;20209;-61
2022/01/16 03:08:25;;;;;;;62.13;23.03;;;;;;;;;;5083734;28;23823;-62
2022/01/16 03:11:20;;;;;;;67.43;21.87;;;;;;;;;;5045815;28;20722;-62
2022/01/16 03:13:48;;;;;;;49.50;22.63;;;;;;;;;;5063133;28;20886;-62
2022/01/16 03:16:17;;;;;;;52.97;23.07;;;;;;;;;;5057019;28;22792;-62
2022/01/16 03:24:17;;;;;;;81.10;34.07;;;;;;;;;;5062756;28;20232;-62
2022/01/16 03:26:45;;;;;;;115.57;44.03;;;;;;;;;;5052971;28;20201;-62
2022/01/16 03:29:13;;;;;;;108.73;46.33;;;;;;;;;;5067998;28;20229;-62
2022/01/16 03:31:40;;;;;;;109.00;42.53;;;;;;;;;;5059865;28;20248;-62
2022/01/16 03:34:08;;;;;;;108.63;39.27;;;;;;;;;;5050290;28;20247;-62
2022/01/16 03:36:35;;;;;;;85.80;28.83;;;;;;;;;;5066692;28;20209;-62
2022/01/16 03:39:03;;;;;;;67.40;20.47;;;;;;;;;;5093408;27;20233;-62
2022/01/16 03:41:33;;;;;;;49.43;20.63;;;;;;;;;;5068446;28;20859;-61
2022/01/16 03:44:03;;;;;;;43.47;21.60;;;;;;;;;;5084500;27;20236;-62
2022/01/16 03:46:34;;;;;;;43.97;20.33;;;;;;;;;;5051648;28;20305;-62
2022/01/16 03:49:06;;;;;;;40.93;20.50;;;;;;;;;;5062839;28;20227;-62
2022/01/16 03:51:34;;;;;;;39.30;20.50;;;;;;;;;;5063028;28;20205;-61
2022/01/16 03:54:02;;;;;;;39.47;19.90;;;;;;;;;;5046612;28;20201;-61
2022/01/16 03:56:30;;;;;;;36.97;19.43;;;;;;;;;;5080399;28;20297;-62
2022/01/16 03:58:57;;;;;;;36.50;20.10;;;;;;;;;;5053280;28;20246;-62
2022/01/16 04:01:26;;;;;;;49.63;20.33;;;;;;;;;;5062555;28;20223;-61
2022/01/16 04:03:54;;;;;;;39.37;21.47;;;;;;;;;;5056464;28;20240;-62
2022/01/16 04:06:22;;;;;;;37.87;20.20;;;;;;;;;;5057994;28;20217;-62
2022/01/16 04:08:50;;;;;;;36.93;20.37;;;;;;;;;;5045447;28;20318;-61
2022/01/16 04:11:18;;;;;;;35.33;19.07;;;;;;;;;;5050998;28;20299;-61
2022/01/16 04:13:51;;;;;;;36.70;19.83;;;;;;;;;;5053701;28;20671;-62
2022/01/16 04:16:20;;;;;;;34.70;19.30;;;;;;;;;;5048149;28;20203;-61
2022/01/16 04:18:50;;;;;;;32.80;18.33;;;;;;;;;;5066286;28;20421;-62
2022/01/16 04:21:19;;;;;;;35.07;18.97;;;;;;;;;;5082299;28;20235;-62
2022/01/16 04:23:46;;;;;;;35.23;19.30;;;;;;;;;;5070864;28;20236;-62
2022/01/16 04:26:14;;;;;;;35.97;20.10;;;;;;;;;;5043582;28;20622;-62
2022/01/16 04:28:48;;;;;;;34.33;18.93;;;;;;;;;;5064704;28;20224;-60
2022/01/16 04:31:16;;;;;;;37.60;19.07;;;;;;;;;;5048740;28;20250;-63
2022/01/16 04:33:44;;;;;;;38.63;19.43;;;;;;;;;;5071653;28;20219;-62
2022/01/16 04:36:12;;;;;;;33.17;18.67;;;;;;;;;;5062065;28;20683;-62
2022/01/16 04:38:45;;;;;;;31.63;18.17;;;;;;;;;;5055135;28;20227;-62
2022/01/16 04:43:59;;;;;;;30.23;17.87;;;;;;;;;;5067016;28;20239;-60
2022/01/16 04:46:28;;;;;;;32.40;17.67;;;;;;;;;;5055799;28;20238;-60
2022/01/16 04:48:56;;;;;;;29.93;17.80;;;;;;;;;;5081371;28;20225;-61
2022/01/16 04:51:24;;;;;;;31.43;16.70;;;;;;;;;;5053583;28;21172;-62
2022/01/16 04:53:52;;;;;;;31.47;17.47;;;;;;;;;;5066822;28;20208;-62
2022/01/16 04:56:19;;;;;;;29.63;17.13;;;;;;;;;;5061090;28;20305;-62
2022/01/16 04:58:47;;;;;;;28.87;17.80;;;;;;;;;;5048997;28;21039;-61
2022/01/16 05:01:15;;;;;;;28.27;16.23;;;;;;;;;;5086384;27;20673;-62
2022/01/16 05:03:43;;;;;;;29.23;17.97;;;;;;;;;;5073014;28;20222;-61
2022/01/16 05:06:10;;;;;;;32.37;17.03;;;;;;;;;;5089476;27;20220;-62
2022/01/16 05:08:38;;;;;;;28.80;16.90;;;;;;;;;;5060927;28;20675;-63
2022/01/16 05:11:07;;;;;;;30.13;17.40;;;;;;;;;;5053587;28;20291;-62
2022/01/16 05:18:53;;;;;;;30.27;17.73;;;;;;;;;;5067206;28;20300;-60
2022/01/16 05:21:20;;;;;;;28.70;16.00;;;;;;;;;;5056384;28;20214;-63
2022/01/16 05:23:48;;;;;;;28.10;16.37;;;;;;;;;;5061326;28;20226;-62
2022/01/16 05:26:18;;;;;;;28.23;17.30;;;;;;;;;;5046220;28;20215;-61
2022/01/16 05:28:45;;;;;;;32.87;17.80;;;;;;;;;;5044958;28;20315;-62
2022/01/16 05:31:12;;;;;;;27.60;17.03;;;;;;;;;;5064513;28;20211;-62
2022/01/16 05:33:40;;;;;;;31.87;18.77;;;;;;;;;;5048295;28;20210;-62
2022/01/16 05:36:08;;;;;;;34.73;18.33;;;;;;;;;;5046016;28;20406;-60
2022/01/16 05:38:35;;;;;;;34.83;18.93;;;;;;;;;;5083387;27;20242;-61
2022/01/16 05:41:02;;;;;;;31.17;18.20;;;;;;;;;;5045936;28;20203;-60
2022/01/16 05:43:30;;;;;;;36.27;18.57;;;;;;;;;;5063467;28;20230;-62
2022/01/16 05:45:57;;;;;;;35.77;18.73;;;;;;;;;;5062482;28;20219;-62
2022/01/16 05:48:26;;;;;;;32.10;17.90;;;;;;;;;;5062580;28;20355;-62
2022/01/16 05:50:54;;;;;;;33.70;19.13;;;;;;;;;;5048592;28;20262;-60
2022/01/16 05:53:21;;;;;;;36.37;19.83;;;;;;;;;;5081833;27;20857;-60
2022/01/16 05:55:49;;;;;;;35.67;19.33;;;;;;;;;;5055425;28;20207;-60
2022/01/16 05:58:16;;;;;;;29.10;17.10;;;;;;;;;;5045394;28;20228;-62
2022/01/16 06:00:47;;;;;;;32.90;18.27;;;;;;;;;;5046231;28;20206;-62
2022/01/16 06:03:15;;;;;;;32.93;18.43;;;;;;;;;;5047700;28;20298;-61
2022/01/16 06:05:42;;;;;;;30.93;18.17;;;;;;;;;;5058626;28;20218;-62
2022/01/16 06:08:12;;;;;;;30.00;16.93;;;;;;;;;;5054032;28;20291;-62
2022/01/16 06:10:40;;;;;;;29.73;16.93;;;;;;;;;;5083417;27;20204;-61
2022/01/16 06:13:07;;;;;;;29.13;17.20;;;;;;;;;;5050288;28;20298;-61
2022/01/16 06:15:35;;;;;;;29.73;17.03;;;;;;;;;;5063451;28;20255;-62
2022/01/16 06:18:03;;;;;;;30.67;18.00;;;;;;;;;;5063781;28;20219;-61
2022/01/16 06:20:30;;;;;;;32.80;18.43;;;;;;;;;;5044063;28;20217;-61
2022/01/16 06:22:58;;;;;;;30.80;17.60;;;;;;;;;;5044947;28;20711;-62
2022/01/16 06:25:25;;;;;;;30.80;17.70;;;;;;;;;;5048387;28;20218;-62
2022/01/16 06:27:53;;;;;;;32.43;17.60;;;;;;;;;;5064533;28;20214;-60
2022/01/16 06:30:21;;;;;;;32.60;17.63;;;;;;;;;;5050793;28;21059;-61
2022/01/16 06:32:48;;;;;;;34.03;18.60;;;;;;;;;;5070703;28;20235;-61
2022/01/16 06:35:16;;;;;;;32.67;17.77;;;;;;;;;;5044304;28;20213;-62
2022/01/16 06:37:44;;;;;;;33.53;18.23;;;;;;;;;;5078453;28;20210;-61
2022/01/16 06:40:12;;;;;;;33.30;17.93;;;;;;;;;;5057307;28;20222;-61
2022/01/16 06:42:42;;;;;;;36.97;18.97;;;;;;;;;;5049032;28;20621;-62
2022/01/16 06:45:11;;;;;;;35.63;19.60;;;;;;;;;;5054299;28;20247;-61
2022/01/16 06:47:39;;;;;;;37.90;19.67;;;;;;;;;;5082694;28;20206;-60
2022/01/16 06:50:08;;;;;;;37.13;19.17;;;;;;;;;;5049812;28;20213;-60
2022/01/16 06:52:35;;;;;;;36.73;19.37;;;;;;;;;;5056859;28;20196;-62
2022/01/16 06:55:03;;;;;;;33.77;18.20;;;;;;;;;;5065797;28;20194;-60
2022/01/16 06:57:30;;;;;;;38.73;19.97;;;;;;;;;;5060899;28;20216;-60
2022/01/16 06:59:58;;;;;;;36.33;19.57;;;;;;;;;;5056716;28;20610;-62
2022/01/16 07:02:25;;;;;;;32.57;18.07;;;;;;;;;;5067154;28;20212;-61
2022/01/16 07:04:53;;;;;;;35.97;19.17;;;;;;;;;;5057619;28;20221;-60
2022/01/16 07:07:20;;;;;;;33.30;18.43;;;;;;;;;;5069570;28;20691;-62
2022/01/16 07:09:47;;;;;;;35.83;18.50;;;;;;;;;;5062733;28;20234;-61
2022/01/16 07:12:15;;;;;;;34.40;19.30;;;;;;;;;;5057715;28;20205;-62
2022/01/16 07:14:43;;;;;;;37.87;20.23;;;;;;;;;;5056418;28;20205;-62
2022/01/16 07:17:10;;;;;;;31.40;18.13;;;;;;;;;;5053428;28;20959;-62
2022/01/16 07:19:38;;;;;;;33.10;18.50;;;;;;;;;;5079164;27;20229;-62
2022/01/16 07:22:05;;;;;;;32.90;18.60;;;;;;;;;;5047509;28;20202;-60
2022/01/16 07:24:33;;;;;;;34.67;19.47;;;;;;;;;;5052362;28;20219;-61
2022/01/16 07:27:01;;;;;;;38.20;20.80;;;;;;;;;;5063177;28;20243;-61
2022/01/16 07:29:29;;;;;;;33.63;19.93;;;;;;;;;;5054519;28;20242;-62
2022/01/16 07:31:57;;;;;;;33.10;18.57;;;;;;;;;;5060891;28;20234;-61
2022/01/16 07:34:24;;;;;;;33.20;18.97;;;;;;;;;;5057522;28;20217;-61
2022/01/16 07:36:52;;;;;;;31.47;17.40;;;;;;;;;;5045310;28;20744;-60
2022/01/16 07:39:19;;;;;;;32.13;18.23;;;;;;;;;;5058142;28;20229;-61
2022/01/16 07:41:48;;;;;;;29.27;16.67;;;;;;;;;;5085704;27;20211;-61
2022/01/16 07:44:16;;;;;;;32.53;17.73;;;;;;;;;;5069148;28;20264;-60
2022/01/16 07:46:44;;;;;;;31.10;17.30;;;;;;;;;;5044442;28;20198;-60
2022/01/16 07:49:12;;;;;;;30.57;17.17;;;;;;;;;;5080710;27;20714;-61
2022/01/16 07:51:39;;;;;;;32.07;17.53;;;;;;;;;;5054837;28;20521;-61
2022/01/16 07:54:07;;;;;;;32.70;18.33;;;;;;;;;;5050258;28;20207;-61
2022/01/16 07:56:34;;;;;;;34.97;18.70;;;;;;;;;;5056219;28;20203;-62
2022/01/16 07:59:01;;;;;;;33.70;19.43;;;;;;;;;;5058984;28;20312;-60
2022/01/16 08:01:29;;;;;;;37.47;19.50;;;;;;;;;;5048373;28;20244;-61
2022/01/16 08:03:56;;;;;;;36.53;19.93;;;;;;;;;;5059681;28;20261;-61
2022/01/16 08:06:29;;;;;;;34.83;19.70;;;;;;;;;;5053285;28;20217;-62
2022/01/16 08:08:56;;;;;;;36.60;20.10;;;;;;;;;;5054918;28;20223;-60
2022/01/16 08:11:24;;;;;;;35.93;20.23;;;;;;;;;;5065366;28;20202;-62
2022/01/16 08:13:51;;;;;;;36.83;20.47;;;;;;;;;;5078151;27;20298;-62
2022/01/16 08:16:18;;;;;;;41.07;22.53;;;;;;;;;;5069140;28;21065;-61
2022/01/16 08:18:46;;;;;;;36.97;20.57;;;;;;;;;;5063854;28;20336;-60
2022/01/16 08:21:13;;;;;;;36.10;19.43;;;;;;;;;;5056770;28;20228;-60
2022/01/16 08:23:44;;;;;;;34.17;18.90;;;;;;;;;;5070248;28;20215;-61
2022/01/16 08:26:11;;;;;;;35.10;20.07;;;;;;;;;;5055951;28;20207;-61
2022/01/16 08:28:39;;;;;;;34.53;21.33;;;;;;;;;;5057985;28;20230;-60
2022/01/16 08:31:06;;;;;;;39.30;21.67;;;;;;;;;;5067019;28;20673;-60
2022/01/16 08:33:36;;;;;;;36.97;20.80;;;;;;;;;;5083996;28;20207;-60
2022/01/16 08:36:03;;;;;;;36.37;20.87;;;;;;;;;;5051710;28;20231;-62
2022/01/16 08:38:33;;;;;;;33.43;19.47;;;;;;;;;;5058426;28;20534;-62
2022/01/16 08:41:02;;;;;;;33.93;18.67;;;;;;;;;;5039735;28;20211;-62
2022/01/16 08:43:32;;;;;;;33.63;19.03;;;;;;;;;;5040563;28;20210;-61
2022/01/16 08:46:00;;;;;;;35.00;18.70;;;;;;;;;;5058531;28;20254;-61
2022/01/16 08:48:28;;;;;;;34.83;18.73;;;;;;;;;;5036765;28;20236;-60
2022/01/16 08:50:56;;;;;;;31.30;18.90;;;;;;;;;;5045318;28;20596;-60
2022/01/16 08:53:25;;;;;;;36.17;20.37;;;;;;;;;;5047452;28;20223;-63
2022/01/16 08:55:52;;;;;;;34.20;19.40;;;;;;;;;;5062451;28;20359;-60
2022/01/16 08:58:19;;;;;;;37.63;20.87;;;;;;;;;;5047091;28;21008;-62
2022/01/16 09:00:48;;;;;;;28.33;17.03;;;;;;;;;;5070549;27;20204;-60
2022/01/16 09:03:17;;;;;;;36.53;19.90;;;;;;;;;;5058107;28;20215;-61
2022/01/16 09:05:45;;;;;;;31.50;19.63;;;;;;;;;;5061789;28;21191;-60
2022/01/16 09:08:12;;;;;;;34.53;19.47;;;;;;;;;;5047883;28;20228;-59
2022/01/16 09:10:41;;;;;;;34.27;20.07;;;;;;;;;;5070926;27;21248;-61
2022/01/16 09:13:11;;;;;;;33.67;19.77;;;;;;;;;;5042041;28;20576;-60
2022/01/16 09:15:39;;;;;;;35.00;18.80;;;;;;;;;;5042611;28;20209;-61
2022/01/16 09:18:07;;;;;;;31.37;19.43;;;;;;;;;;5050493;28;20236;-62
2022/01/16 09:20:34;;;;;;;36.67;20.70;;;;;;;;;;5057033;28;20240;-61
2022/01/16 09:23:02;;;;;;;33.83;20.70;;;;;;;;;;5042901;28;20740;-61
2022/01/16 09:25:29;;;;;;;36.10;19.43;;;;;;;;;;5052344;28;20595;-60
2022/01/16 09:27:57;;;;;;;31.77;17.93;;;;;;;;;;5058296;28;20192;-62
2022/01/16 09:30:28;;;;;;;28.37;17.07;;;;;;;;;;5070663;27;20219;-62
2022/01/16 09:32:56;;;;;;;27.40;17.13;;;;;;;;;;5051459;28;20213;-62
2022/01/16 09:35:23;;;;;;;30.23;20.37;;;;;;;;;;5050566;28;20212;-61
2022/01/16 09:37:51;;;;;;;31.37;22.83;;;;;;;;;;5087416;28;20204;-62
2022/01/16 09:40:21;;;;;;;32.13;20.93;;;;;;;;;;5041518;28;20216;-61
2022/01/16 09:42:49;;;;;;;27.57;16.50;;;;;;;;;;5038094;28;20765;-62
2022/01/16 09:45:17;;;;;;;42.50;26.33;;;;;;;;;;5049233;28;20233;-62
2022/01/16 09:47:46;;;;;;;29.53;18.77;;;;;;;;;;5081738;27;20220;-62
2022/01/16 09:50:16;;;;;;;56.33;36.10;;;;;;;;;;5060578;28;20332;-61
2022/01/16 09:52:44;;;;;;;31.57;19.77;;;;;;;;;;5043509;28;20236;-62
2022/01/16 09:55:12;;;;;;;26.10;17.77;;;;;;;;;;5065378;28;20603;-61
2022/01/16 09:57:40;;;;;;;38.40;24.60;;;;;;;;;;5045276;28;20209;-61
2022/01/16 10:00:12;;;;;;;23.70;15.43;;;;;;;;;;5057614;28;20251;-61
2022/01/16 10:02:40;;;;;;;24.10;15.40;;;;;;;;;;5050270;28;20203;-62
2022/01/16 10:05:22;;;;;;;24.50;15.47;;;;;;;;;;5051322;28;20260;-62
2022/01/16 10:07:50;;;;;;;21.87;14.10;;;;;;;;;;5086893;27;20224;-62
2022/01/16 10:10:18;;;;;;;19.33;12.33;;;;;;;;;;5069601;28;20581;-61
2022/01/16 10:12:51;;;;;;;18.63;12.27;;;;;;;;;;5057065;28;20251;-61
2022/01/16 10:15:30;;;;;;;19.23;12.77;;;;;;;;;;5051319;28;20207;-61
2022/01/16 10:18:01;;;;;;;16.67;11.80;;;;;;;;;;5044822;28;20354;-62
2022/01/16 10:20:29;;;;;;;19.73;12.20;;;;;;;;;;5068932;28;20209;-62
2022/01/16 10:23:03;;;;;;;18.33;12.40;;;;;;;;;;5067328;28;20200;-63
2022/01/16 10:25:45;;;;;;;19.60;13.30;;;;;;;;;;5051111;28;20216;-62
2022/01/16 10:28:13;;;;;;;18.57;12.87;;;;;;;;;;5068565;28;20641;-63
2022/01/16 10:30:43;;;;;;;21.70;14.23;;;;;;;;;;5056169;28;20213;-63
2022/01/16 10:33:12;;;;;;;18.63;12.83;;;;;;;;;;5058266;28;20291;-63
2022/01/16 10:35:40;;;;;;;19.63;13.33;;;;;;;;;;5051330;28;20197;-62
2022/01/16 10:38:15;;;;;;;18.87;12.83;;;;;;;;;;5058364;28;20225;-63
2022/01/16 10:40:44;;;;;;;20.97;14.27;;;;;;;;;;5049820;28;20200;-61
2022/01/16 10:43:15;;;;;;;15.80;11.97;;;;;;;;;;5065516;28;20201;-62
2022/01/16 10:45:44;;;;;;;20.83;12.90;;;;;;;;;;5085442;28;20259;-61
2022/01/16 10:48:14;;;;;;;18.40;13.57;;;;;;;;;;5056289;28;20229;-63
2022/01/16 10:50:46;;;;;;;18.23;12.80;;;;;;;;;;5082654;28;20266;-61
2022/01/16 10:53:19;;;;;;;17.60;12.90;;;;;;;;;;5063363;28;20210;-62
2022/01/16 10:55:49;;;;;;;18.07;12.03;;;;;;;;;;5067180;28;20206;-63
2022/01/16 10:58:21;;;;;;;16.90;11.70;;;;;;;;;;5045733;28;20313;-61
2022/01/16 11:01:00;;;;;;;16.33;12.07;;;;;;;;;;5067839;28;20906;-62
2022/01/16 11:03:29;;;;;;;19.50;12.60;;;;;;;;;;5045961;28;20245;-61
2022/01/16 11:05:56;;;;;;;18.13;12.17;;;;;;;;;;5038836;28;20234;-61
2022/01/16 11:08:25;;;;;;;19.57;13.63;;;;;;;;;;5081084;28;20725;-61
2022/01/16 11:10:55;;;;;;;17.23;12.27;;;;;;;;;;5051272;28;20196;-62
2022/01/16 11:13:27;;;;;;;19.07;12.47;;;;;;;;;;5047470;28;20201;-63
2022/01/16 11:15:55;;;;;;;23.07;13.90;;;;;;;;;;5051693;28;20578;-63
2022/01/16 11:18:23;;;;;;;21.40;14.60;;;;;;;;;;5049482;28;20228;-62
2022/01/16 11:20:57;;;;;;;19.17;13.10;;;;;;;;;;5058840;28;20197;-61
2022/01/16 11:23:47;;;;;;;17.77;12.87;;;;;;;;;;5087792;28;20212;-62
2022/01/16 11:26:15;;;;;;;20.40;12.57;;;;;;;;;;5056189;28;20244;-61
2022/01/16 11:28:43;;;;;;;20.30;12.80;;;;;;;;;;5069839;28;20595;-63
2022/01/16 11:31:11;;;;;;;18.47;11.40;;;;;;;;;;5073840;28;20240;-62
2022/01/16 11:33:39;;;;;;;21.50;12.83;;;;;;;;;;5049225;28;20235;-64
2022/01/16 11:36:18;;;;;;;18.10;12.70;;;;;;;;;;5046962;28;20216;-61
2022/01/16 11:38:49;;;;;;;19.67;12.00;;;;;;;;;;5056332;28;20709;-61
2022/01/16 11:41:32;;;;;;;19.07;12.50;;;;;;;;;;5079334;28;20808;-61
2022/01/16 11:44:00;;;;;;;19.40;12.70;;;;;;;;;;5092793;28;20678;-63
2022/01/16 11:46:34;;;;;;;18.23;12.37;;;;;;;;;;5059068;28;20229;-63
2022/01/16 11:49:02;;;;;;;19.10;12.47;;;;;;;;;;5075452;28;20225;-62
2022/01/16 11:51:36;;;;;;;17.43;11.33;;;;;;;;;;5090625;28;20206;-62
2022/01/16 11:54:22;;;;;;;20.00;12.93;;;;;;;;;;5057601;28;20206;-60
2022/01/16 11:56:51;;;;;;;17.57;12.63;;;;;;;;;;5063993;28;20208;-61
2022/01/16 11:59:22;;;;;;;16.77;11.60;;;;;;;;;;5091459;27;20267;-61
2022/01/16 12:01:52;;;;;;;19.93;13.00;;;;;;;;;;5057994;28;20213;-63
2022/01/16 12:04:29;;;;;;;19.33;13.10;;;;;;;;;;5093104;27;20209;-62
2022/01/16 12:07:16;;;;;;;19.57;12.70;;;;;;;;;;5057004;28;20205;-61
2022/01/16 12:10:17;;;;;;;20.43;12.80;;;;;;;;;;5061113;28;20267;-62
2022/01/16 12:12:37;;;;;;;19.93;13.00;;;;;;;;;;5072133;28;20198;-61
2022/01/16 12:15:06;;;;;;;20.73;13.13;;;;;;;;;;5069033;28;20675;-61
2022/01/16 12:17:38;;;;;;;22.03;13.17;;;;;;;;;;5082145;28;20295;-62
2022/01/16 12:20:15;;;;;;;17.70;12.27;;;;;;;;;;5065484;28;20852;-61
2022/01/16 12:22:54;;;;;;;19.83;12.97;;;;;;;;;;5104002;27;20213;-61
2022/01/16 12:25:43;;;;;;;20.53;12.87;;;;;;;;;;5090442;27;20228;-61
2022/01/16 12:28:10;;;;;;;19.23;12.70;;;;;;;;;;5060661;28;20241;-61
2022/01/16 12:30:41;;;;;;;20.93;13.27;;;;;;;;;;5063786;28;20236;-61
2022/01/16 12:33:10;;;;;;;18.37;12.30;;;;;;;;;;5068746;28;20565;-60
2022/01/16 12:35:54;;;;;;;16.77;12.23;;;;;;;;;;5087108;27;20205;-62
2022/01/16 12:38:29;;;;;;;18.33;12.70;;;;;;;;;;5061813;28;20239;-62
2022/01/16 12:41:03;;;;;;;17.97;13.13;;;;;;;;;;5057828;28;20261;-61
2022/01/16 12:43:43;;;;;;;21.77;12.73;;;;;;;;;;5063087;28;20236;-61
2022/01/16 12:46:13;;;;;;;17.60;12.33;;;;;;;;;;5063564;28;20227;-61
2022/01/16 12:48:44;;;;;;;18.20;12.57;;;;;;;;;;5082248;28;20574;-60
2022/01/16 12:51:15;;;;;;;21.30;13.80;;;;;;;;;;5051079;28;20673;-60
2022/01/16 12:53:50;;;;;;;18.70;12.57;;;;;;;;;;5068243;28;20258;-60
2022/01/16 12:56:23;;;;;;;20.17;12.47;;;;;;;;;;5059516;28;20212;-59
2022/01/16 12:59:11;;;;;;;17.90;12.10;;;;;;;;;;5049941;28;20232;-60
2022/01/16 13:01:44;;;;;;;19.43;12.93;;;;;;;;;;5046339;28;20221;-60
2022/01/16 13:04:18;;;;;;;18.10;13.47;;;;;;;;;;5049862;28;20220;-61
2022/01/16 13:06:45;;;;;;;20.53;12.57;;;;;;;;;;5038854;28;20237;-59
2022/01/16 13:09:13;;;;;;;18.27;12.33;;;;;;;;;;5057503;28;20588;-60
2022/01/16 13:11:41;;;;;;;18.60;12.77;;;;;;;;;;5063403;28;20200;-60
2022/01/16 13:14:16;;;;;;;21.30;13.97;;;;;;;;;;5055975;28;20204;-59
2022/01/16 13:16:45;;;;;;;18.60;12.97;;;;;;;;;;5079680;27;20280;-62
2022/01/16 13:19:18;;;;;;;18.53;12.80;;;;;;;;;;5050395;28;20237;-60
2022/01/16 13:21:49;;;;;;;21.27;13.73;;;;;;;;;;5079241;27;20682;-62
2022/01/16 13:24:23;;;;;;;20.43;13.63;;;;;;;;;;5032495;28;20213;-61
2022/01/16 13:26:51;;;;;;;27.03;15.43;;;;;;;;;;5060511;27;20224;-62
2022/01/16 13:29:20;;;;;;;21.27;14.00;;;;;;;;;;5052236;28;20225;-61
2022/01/16 13:31:48;;;;;;;21.83;13.37;;;;;;;;;;5040812;28;20261;-61
2022/01/16 13:34:36;;;;;;;21.97;16.17;;;;;;;;;;5064611;28;20208;-59
2022/01/16 13:37:04;;;;;;;23.23;15.83;;;;;;;;;;5037256;28;20707;-59
2022/01/16 13:39:42;;;;;;;21.30;14.60;;;;;;;;;;5079871;27;20805;-60
2022/01/16 13:42:24;;;;;;;20.87;13.60;;;;;;;;;;5049998;28;20201;-60
2022/01/16 13:44:52;;;;;;;20.80;13.47;;;;;;;;;;5050994;28;20213;-60
2022/01/16 13:47:20;;;;;;;21.27;14.33;;;;;;;;;;5056097;28;20224;-61
2022/01/16 13:49:49;;;;;;;21.23;13.63;;;;;;;;;;5071764;28;20247;-61
2022/01/16 13:52:25;;;;;;;20.00;13.73;;;;;;;;;;5073044;27;20208;-60
2022/01/16 13:55:06;;;;;;;22.53;13.73;;;;;;;;;;5037162;28;20211;-60
2022/01/16 13:57:35;;;;;;;16.23;11.27;;;;;;;;;;5035658;28;20204;-60
2022/01/16 14:00:10;;;;;;;20.67;13.47;;;;;;;;;;5057853;28;20729;-60
2022/01/16 14:02:38;;;;;;;20.63;13.80;;;;;;;;;;5042826;28;20198;-61
2022/01/16 14:05:06;;;;;;;22.70;13.63;;;;;;;;;;5048124;28;21572;-59
2022/01/16 14:07:33;;;;;;;17.47;12.47;;;;;;;;;;5056095;28;20208;-59
2022/01/16 14:10:01;;;;;;;17.33;11.60;;;;;;;;;;5039894;28;20917;-59
2022/01/16 14:12:29;;;;;;;15.87;10.43;;;;;;;;;;5048766;28;20212;-62
2022/01/16 14:14:56;;;;;;;15.87;11.20;;;;;;;;;;5046449;28;20302;-60
2022/01/16 14:17:41;;;;;;;18.60;11.43;;;;;;;;;;5049327;28;20206;-60
2022/01/16 14:20:24;;;;;;;15.70;11.20;;;;;;;;;;5059883;28;20300;-60
2022/01/16 14:22:52;;;;;;;17.67;11.03;;;;;;;;;;5045570;28;20647;-61
2022/01/16 14:25:21;;;;;;;18.50;11.37;;;;;;;;;;5061364;28;20247;-61
2022/01/16 14:27:56;;;;;;;16.97;11.23;;;;;;;;;;5053368;28;20666;-62
2022/01/16 14:30:28;;;;;;;17.70;11.30;;;;;;;;;;5051099;28;20208;-61
2022/01/16 14:32:55;;;;;;;15.57;10.13;;;;;;;;;;5067093;27;20207;-60
2022/01/16 14:35:23;;;;;;;15.30;8.73;;;;;;;;;;5047443;28;20209;-61
2022/01/16 14:37:51;;;;;;;15.20;9.60;;;;;;;;;;5049003;28;20212;-61
2022/01/16 14:40:19;;;;;;;17.93;10.73;;;;;;;;;;5037144;28;20209;-62
2022/01/16 14:42:53;;;;;;;15.70;10.00;;;;;;;;;;5050633;28;20194;-61
2022/01/16 14:45:22;;;;;;;26.47;17.50;;;;;;;;;;5045822;28;20212;-60
2022/01/16 14:47:49;;;;;;;26.03;15.47;;;;;;;;;;5071197;27;23765;-62
2022/01/16 14:50:16;;;;;;;18.60;12.33;;;;;;;;;;5044963;28;20240;-61
2022/01/16 14:52:46;;;;;;;24.33;15.87;;;;;;;;;;5043389;28;20208;-59
2022/01/16 14:55:16;;;;;;;15.93;11.23;;;;;;;;;;5047533;28;20212;-61
2022/01/16 14:57:43;;;;;;;12.47;8.47;;;;;;;;;;5046314;28;20211;-61
2022/01/16 15:00:11;;;;;;;11.60;7.67;;;;;;;;;;5061523;28;20208;-61
2022/01/16 15:02:40;;;;;;;20.03;11.17;;;;;;;;;;5063928;28;20218;-60
2022/01/16 15:05:10;;;;;;;13.30;8.53;;;;;;;;;;5083428;28;20213;-61
2022/01/16 15:07:43;;;;;;;13.57;9.37;;;;;;;;;;5050608;28;20235;-60
2022/01/16 15:10:12;;;;;;;15.83;9.23;;;;;;;;;;5054345;28;20212;-60